Contact Us:
Email: info@sawbill.com
Phone: (218)663-7150
Fax: (218)663-7980
Mail: 4620 Sawbill Trail
Box 2129
Tofte, MN 55615


Powered by
Movable Type 3.15
 
Sawbill Weather History Archives: November 2009
Current Sawbill Weather History | « October 2009 | December 2009 »


Date

High
Temperature

Low
Temperature

Barometric
Pressure

Relative
Humidity 7AM

9 AM
Temperature

Moisture

Snow

11/30/09 30 26 29.97 84% 26 .12" 1.5"
11/29/09 30 25 29.94 88% 26 Trace Trace
11/28/09 34 25 30.09 82% 26 0
11/27/09 28 21 30.00 90% 26 0
11/26/09 27 18 30.15 84% 21 Trace Trace
11/25/09 37 26 30.15 87% 26 .09" Trace
11/24/09 40 37 30.00 98% 37 .1"
11/23/09 46 40 30.24 98% 40 .09"
11/22/09 44 38 30.36 98% 43 1.1"
11/21/09 42 22 30.21 98% 38 0
11/20/09 42 19 30.27 81% 22 0
11/19/09 41 31 30.24 88% 35 Trace
11/18/09 44 28 30.27 96% 31 0
11/17/09 43 24 30.42 91% 28 0
11/16/09 43 24 30.53 90% 26 0
11/15/09 38 27 30.50 87% 27 0
11/14/09 39 30 30.39 78% 30 .2" Trace
11/13/09 45 38 29.97 96% 38 .57"
11/12/09 47 42 29.91 60% 44 0
11/11/09 50 36 30.01 61% 42 0
11/10/09 49 29 30.53 59% 36 0
11/9/09 48 30 30.65 80% 30 0
11/8/09 46 34 30.33 92% 38 .15"
11/7/09 54 33 30.30 69% 34 0
11/6/09 45 34 29.85 96% 41 0
11/5/09 35 27 30.12 89% 35 0
11/4/09 36 29 30.35 68% 29 0
11/3/09 35 29 30.30 93% 31 .07" Trace
11/2/09 36 29 30.45 71% 29 0
11/1/09 37 33 30.21 94% 33 .39" Trace
 


Home I Trip Planning I Rentals and Outfitting I Reservations I Campgrounds I Sawbill Store I Sawbill News I Contact

© 1997 - 2017, Sawbill Canoe Outfitters, Inc. I Privacy Policy